logo
App data

Wanda - A Beautiful Apocalypse

Wanda is a minimalist story-rich puzzle about two robotic lifeforms finding happiness, companionship and hope in a lonely post-apocalyptic world.
Store | Hub | SteamDB | Site
Developer: Kodots Games Publisher: KISS ltd
Genre: Casual, Indie, RPG
Languages: English
Tags: Casual (39), Indie (24), Puzzle (18), RPG (17), RPGMaker (17), Great Soundtrack (17), Story Rich (16), Atmospheric (16), Visual Novel (12), Adventure (12)
Category: Single-player, Steam Achievements, Steam Trading Cards, Partial Controller Support
Release date: Jun 3, 2016
Price: $1.99
Old userscore: 60% Owners: 100,000 .. 200,000
Followers: 738
Peak concurrent players yesterday: 2
Playtime total: 03:27 (average) 03:28 (median)

Steam Spy is still in beta, so expect major bugs.

Owners data:

Access restricted.

This feature is only available to users with special access rights. Sorry.

If you want to proceed, you need to register or log in first and then back Steam Spy on Patreon. Look for Indie or Pro pledge.

Don't forget to use the same email as on Steam Spy!

Audience in 2 weeks:

Access restricted.

This feature is only available to users with special access rights. Sorry.

If you want to proceed, you need to register or log in first and then back Steam Spy on Patreon. Look for Indie or Pro pledge.

Don't forget to use the same email as on Steam Spy!

Peak daily concurrent players:

CCU data courtesy of SteamDB. Used with permission.

Hourly concurrent players:

Followers over time

Access restricted.

This feature is only available to users with special access rights. Sorry.

If you want to proceed, you need to register or log in first and then back Steam Spy on Patreon. Look for Indie or Pro pledge.

Don't forget to use the same email as on Steam Spy!

Views for top 50 videos on YouTube for this game:

Games similar to this one:

# Game Release date
Price
Score rank
(Userscore / Metascore)
Owners
Players
Playtime (Median)
1 Star Chronicles: Delta Quadrant Jul 7, 2015 $0.49N/A (N/A)200,000 .. 500,0000%00:00 (00:00)
2 Drizzlepath Mar 12, 2015 $0.99N/A (N/A)20,000 .. 50,0000%00:00 (00:00)
3 12 Labours of Hercules Mar 23, 2015 $1.79N/A (N/A)100,000 .. 200,0000%00:00 (00:00)
4 The Reject Demon: Toko Chapter 0 — Prelude May 9, 2015 $4.99N/A (N/A)20,000 .. 50,0000%00:00 (00:00)
5 Bob Was Hungry Aug 19, 2015 $0.99N/A (N/A)50,000 .. 100,0000%00:00 (00:00)
6 Cursed Sight Aug 3, 2015 $2.49N/A (N/A)0 .. 20,0000%00:00 (00:00)
7 Pixel Puzzles 2: Birds Feb 20, 2015 $1.24N/A (N/A)200,000 .. 500,0000%00:00 (00:00)
8 Egg Returns Home May 5, 2015 $0.99N/A (N/A)20,000 .. 50,0000%00:00 (00:00)
9 Stay Alight Mar 2, 2015 $3.99N/A (N/A)50,000 .. 100,0000%00:00 (00:00)
10 Power of Love Jul 21, 2015 $0.49N/A (N/A)20,000 .. 50,0000%00:00 (00:00)
11 Astro Emporia Feb 2, 2015 $0.49N/A (N/A)20,000 .. 50,0000%00:00 (00:00)
12 Way of Gold and Steel Aug 17, 2015 $8.99N/A (N/A)0 .. 20,0000%00:00 (00:00)
13 Streets of Chaos Jan 23, 2015 N/AN/A (N/A)100,000 .. 200,0000%00:00 (00:00)
14 Fate Tectonics Sep 9, 2015 $0.49N/A (N/A)20,000 .. 50,0000%00:00 (00:00)
15 Racecraft Mar 4, 2016 FreeN/A (N/A)20,000 .. 50,0000%00:00 (00:00)
16 Koala Kids Jun 22, 2015 $0.99N/A (N/A)20,000 .. 50,0000%00:00 (00:00)
17 Pester Jan 25, 2013 $0.49N/A (N/A)100,000 .. 200,0000%00:00 (00:00)
18 Burst Mar 14, 2016 N/AN/A (N/A)50,000 .. 100,0000%00:00 (00:00)
19 Herding Dog Dec 25, 2015 $1.99N/A (N/A)0 .. 20,0000%00:00 (00:00)
20 Job the Leprechaun Jul 31, 2015 $0.74N/A (N/A)20,000 .. 50,0000%00:00 (00:00)
21 Loot Hound Nov 17, 2015 $2.99N/A (N/A)0 .. 20,0000%00:00 (00:00)
22 Alpha Runner Sep 2, 2015 $0.99N/A (N/A)100,000 .. 200,0000%00:00 (00:00)
23 BAD END Nov 25, 2015 $1.79N/A (N/A)0 .. 20,0000%00:00 (00:00)
24 In Between Aug 21, 2015 $2.99N/A (N/A/68%)50,000 .. 100,0000%00:00 (00:00)
25 Goodnight Butcher Dec 18, 2015 $1.99N/A (N/A)20,000 .. 50,0000%00:00 (00:00)
26 The Deletion Jul 30, 2015 $0.49N/A (N/A)20,000 .. 50,0000%00:00 (00:00)
27 Broken Dreams Feb 19, 2016 $0.49N/A (N/A)500,000 .. 1,000,0000%00:00 (00:00)
28 Backgammon Blitz Nov 12, 2015 $3.99N/A (N/A)0 .. 20,0000%00:00 (00:00)
29 Sophie's Curse Mar 16, 2016 $2.49N/A (N/A)50,000 .. 100,0000%00:00 (00:00)
30 12 Labours of Hercules IV: Mother Nature (Platinum Edition) Dec 25, 2015 $1.79N/A (N/A)20,000 .. 50,0000%00:00 (00:00)
31 RePete Nov 1, 2015 $1.99N/A (N/A)0 .. 20,0000%00:00 (00:00)
32 Lift It Jan 20, 2017 $0.49N/A (N/A)50,000 .. 100,0000%00:00 (00:00)
33 Hustle Cat Mar 16, 2016 $2.99N/A (N/A)50,000 .. 100,0000%00:00 (00:00)
34 The Last NightMary - A Lenda do Cabeça de Cuia Nov 2, 2015 $3.99N/A (N/A)50,000 .. 100,0000%00:00 (00:00)
35 GO AWAY, THERE'S KUMIS OVER THERE! Oct 28, 2016 $0.49N/A (N/A)50,000 .. 100,0000%00:00 (00:00)
36 Color Syndrome Jun 20, 2016 $0.99N/A (N/A)100,000 .. 200,0000%00:00 (00:00)
37 Forgotten, Not Lost - A Kinetic Novel Apr 2, 2016 $1.99N/A (N/A)20,000 .. 50,0000%00:00 (00:00)
38 Hide and Secret Treasure of the Ages Mar 15, 2007 $2.99N/A (N/A)20,000 .. 50,0000%00:00 (00:00)
39 Love in the Glen Jun 9, 2016 $2.99N/A (N/A)20,000 .. 50,0000%00:00 (00:00)
40 12 Labours of Hercules V: Kids of Hellas (Platinum Edition) Jun 17, 2016 $1.79N/A (N/A)20,000 .. 50,0000%00:00 (00:00)
41 One Last Chance Apr 7, 2016 $1.99N/A (N/A)20,000 .. 50,0000%00:00 (00:00)
42 ConflictCraft Dec 8, 2016 $0.49N/A (N/A)100,000 .. 200,0000%00:00 (00:00)
43 Hyposphere May 5, 2016 $0.5N/A (N/A)200,000 .. 500,0000%00:00 (00:00)
44 Clock Simulator Jul 20, 2016 $0.49N/A (N/A)20,000 .. 50,0000%00:00 (00:00)
45 King's Guard TD Jun 8, 2016 $0.59N/A (N/A)200,000 .. 500,0000%00:00 (00:00)
46 Football Blitz Jan 4, 2017 N/AN/A (N/A)0 .. 20,0000%00:00 (00:00)
47 hackmud Sep 22, 2016 $14.99N/A (N/A)50,000 .. 100,0000%00:00 (00:00)
48 Turbo Pug 3D Sep 20, 2016 $0.99N/A (N/A)200,000 .. 500,0000%00:00 (00:00)
49 Autumn Sep 23, 2014 $2.99N/A (N/A)100,000 .. 200,0000%00:00 (00:00)
50 Archimedes Oct 6, 2016 $0.79N/A (N/A)20,000 .. 50,0000%00:00 (00:00)
51 Magma Tsunami Jun 1, 2016 $0.99N/A (N/A)200,000 .. 500,0000%00:00 (00:00)
52 The Survey Oct 27, 2016 $0.99N/A (N/A)20,000 .. 50,0000%00:00 (00:00)
53 Neon Prism Nov 18, 2016 $1.09N/A (N/A)50,000 .. 100,0000%00:00 (00:00)
54 iREC Jan 16, 2017 FreeN/A (N/A)50,000 .. 100,0000%00:00 (00:00)
55 Space Hotel Jan 4, 2017 $0.49N/A (N/A)0 .. 20,0000%00:00 (00:00)
56 Winexy Jan 13, 2017 $0.49N/A (N/A)50,000 .. 100,0000%00:00 (00:00)
57 Ninja Stealth 2 Jan 30, 2017 $0.49N/A (N/A)50,000 .. 100,0000%00:00 (00:00)
58 Darkarta: A Broken Heart's Quest Collector's Edition Mar 8, 2017 $3.99N/A (N/A)50,000 .. 100,0000%00:00 (00:00)
59 Grapple Mar 9, 2015 $0.69N/A (N/A)20,000 .. 50,0000%00:00 (00:00)
60 Marble Duel: Sphere-Matching Tactical Fantasy Nov 12, 2015 $4.49N/A (N/A)50,000 .. 100,0000%00:00 (00:00)
61 Paranormal State: Poison Spring Nov 26, 2013 $1.49N/A (N/A)50,000 .. 100,0000%00:00 (00:00)
62 Axel & Pixel Oct 6, 2010 $1.24N/A (N/A)20,000 .. 50,0000%00:00 (00:00)
63 Tribloos 2 Jan 12, 2013 $2.49N/A (N/A)100,000 .. 200,0000%00:00 (00:00)
64 Governor of Poker 2 - Premium Edition Oct 11, 2010 $14.99N/A (N/A)20,000 .. 50,0000%00:00 (00:00)
65 Cyto Jul 10, 2014 $3.99N/A (N/A)20,000 .. 50,0000%00:00 (00:00)
66 Luxor Evolved Mar 1, 2012 $3.99N/A (N/A)50,000 .. 100,0000%00:00 (00:00)
67 Bloop Reloaded Feb 6, 2015 FreeN/A (N/A)100,000 .. 200,0000%00:00 (00:00)
68 Oozi: Earth Adventure Dec 5, 2013 $0.49N/A (N/A/66%)20,000 .. 50,0000%00:00 (00:00)
69 Quantum Rush Champions Dec 4, 2014 $2.99N/A (N/A)20,000 .. 50,0000%00:00 (00:00)
70 Particulars Nov 19, 2014 $5.99N/A (N/A/74%)0 .. 20,0000%00:00 (00:00)
71 Sinister City Oct 18, 2014 $0.49N/A (N/A)100,000 .. 200,0000%00:00 (00:00)
72 Girls Like Robots Feb 14, 2014 $5.24N/A (N/A)100,000 .. 200,0000%00:00 (00:00)
73 Vampires: Guide Them to Safety! Oct 22, 2014 $0.99N/A (N/A)0 .. 20,0000%00:00 (00:00)
74 Farm for your Life Jun 5, 2013 $9.99N/A (N/A)50,000 .. 100,0000%00:00 (00:00)
75 The Jackbox Party Pack Nov 26, 2014 $12.49N/A (N/A)200,000 .. 500,0000%00:00 (00:00)

Tags over time:

Access restricted.

This feature is only available to users with special access rights. Sorry.

If you want to proceed, you need to register or log in first and then back Steam Spy on Patreon. Look for Indie or Pro pledge.

Don't forget to use the same email as on Steam Spy!

Owners of this game also own:

Access restricted.

This feature is only available to users with special access rights. Sorry.

If you want to proceed, you need to register or log in first and then back Steam Spy on Patreon. Look for Indie or Pro pledge.

Don't forget to use the same email as on Steam Spy!

Playtime distribution:

Access restricted.

This feature is only available to users with special access rights. Sorry.

If you want to proceed, you need to register or log in first and then back Steam Spy on Patreon. Look for Indie or Pro pledge.

Don't forget to use the same email as on Steam Spy!

Playtime (2 weeks):

Access restricted.

This feature is only available to users with special access rights. Sorry.

If you want to proceed, you need to register or log in first and then back Steam Spy on Patreon. Look for Indie or Pro pledge.

Don't forget to use the same email as on Steam Spy!

User reviews:

Login required.

Please register or log in to see this information.